This is the latest recevied weather packets stored in our database for station/object OE-11399. If no packets are shown the sender has not sent any weather packets the latest 10 day(s).
| Time | Temp. | Humidity | Pressure | Rain* | Wind** | Luminosity | Snow |
|---|---|---|---|---|---|---|---|
| 1788463528 | 15.56° C | 67% | 856.8 hPa | 0 mm | - | 0 W/m² | - |
| 1788449728 | 24.44° C | 34% | 857.3 hPa | 0 mm | - | 360 W/m² | - |
| 1788449128 | 24.44° C | 31% | 857.2 hPa | 0 mm | - | 484 W/m² | - |
| 1788448301 | 23.89° C | 32% | 857.1 hPa | 0 mm | - | 404 W/m² | - |
| 1788447928 | 24.44° C | 31% | 857.4 hPa | 0 mm | - | 536 W/m² | - |
| 1788446127 | 24.44° C | 32% | 857.4 hPa | 0 mm | - | 616 W/m² | - |
| 1788445528 | 24.44° C | 33% | 857.3 hPa | 0 mm | - | 550 W/m² | - |
| 1788444328 | 23.33° C | 35% | 857.3 hPa | 0 mm | - | 396 W/m² | - |
| 1788443728 | 23.89° C | 35% | 857.4 hPa | 0 mm | - | 426 W/m² | - |
| 1788442528 | 23.89° C | 34% | 857.4 hPa | 0 mm | - | 609 W/m² | - |
| 1788441928 | 24.44° C | 37% | 857.4 hPa | 0 mm | - | 602 W/m² | - |
| 1788441102 | 23.89° C | 33% | 857.4 hPa | 0 mm | - | 704 W/m² | - |
| 1788438928 | 23.33° C | 34% | 857.5 hPa | 0 mm | - | 697 W/m² | - |
| 1788438328 | 23.33° C | 37% | 857.6 hPa | 0 mm | - | 616 W/m² | - |
| 1788437128 | 23.33° C | 37% | 857.2 hPa | 0 mm | - | 418 W/m² | - |
| 1788435328 | 23.89° C | 36% | 857.7 hPa | 0 mm | - | 653 W/m² | - |
| 1788434728 | 23.33° C | 36% | 857.7 hPa | 0 mm | - | 748 W/m² | - |
| 1788433528 | 22.78° C | 38% | 857.6 hPa | 0 mm | - | 800 W/m² | - |
| 1788432928 | 22.78° C | 37% | 857.9 hPa | 0 mm | - | 741 W/m² | - |
| 1788431728 | 22.78° C | 38% | 858 hPa | 0 mm | - | 770 W/m² | - |
| 1788431128 | 22.78° C | 38% | 858 hPa | 0 mm | - | 572 W/m² | - |
| 1788430301 | 22.78° C | 37% | 858.1 hPa | 0 mm | - | 770 W/m² | - |
| 1788429928 | 22.78° C | 39% | 858 hPa | 0 mm | - | 792 W/m² | - |
| 1788429328 | 22.22° C | 37% | 858.1 hPa | 0 mm | - | 763 W/m² | - |
| 1788428501 | 22.22° C | 38% | 858 hPa | 0 mm | - | 756 W/m² | - |
* Rain latest hour (hover to see other rain measurements)
** Current wind speed in m/s (hover to see current wind gust speed)